首页
METAR-TAF:

METAR-TAF

机场 :

博博迪烏拉索機場

博博迪乌拉索, 布吉納法索

纬度: 11-10N, 经度: 004-19W, 海拔: 460米

当前天气观测

该预报发布于5小时和26分钟前的09:00 UTC
风速8节,风向东北,在之间变化
温度 25°C
湿度 26%
气压 1018 hPa
能見度: 6000

METAR: DFOO 110900Z 05008KT 010V080 6000 NSC 25/04 Q1018

时间: 14:26 (14:26 UTC)

预报

该预报发布于9小时和26分钟前的05:00 UTC
预报有效从11日的 06点(UTC)到 12日的 06点(UTC)
风速8节,风向东转东北
能見度: 8000
短暂存在
从 11日的 06点(UTC)到 11日的 10点(UTC)
能見度: 2000

TAF: DFOO 110500Z 1106/1206 06008KT 8000 NSC TEMPO 1106/1110 2000 HZ

超过4000个机场的气象观测和天气预报(METAR&TAF报告)。

可查询的气象台以黄色和红色小点在地图上表示。

将鼠标移到小点上方,可查看气象台名称。

然后点击查看天气观测和预报。

如需切换地图:点击带黑十字的绿色按钮放大地图;点击带横线的绿色按钮缩小地图;或者点击绿色箭头查看邻近地区的地图。


METAR-TAF: